createdAt,value
2023-04-24T00:01:23.491Z,11.50
2023-04-24T00:06:25.285Z,11.51
2023-04-24T00:11:27.873Z,11.50
2023-04-24T00:16:29.662Z,11.51
2023-04-24T00:21:31.211Z,11.52
2023-04-24T00:26:32.694Z,11.52
2023-04-24T00:31:36.060Z,11.50
2023-04-24T00:36:37.761Z,11.49
2023-04-24T00:41:39.251Z,11.44
2023-04-24T00:46:41.507Z,11.39
2023-04-24T00:51:46.559Z,11.34
2023-04-24T00:56:48.392Z,11.28
2023-04-24T01:01:50.107Z,11.19
2023-04-24T01:06:53.485Z,11.11
2023-04-24T01:11:55.795Z,11.03
2023-04-24T01:16:58.681Z,10.97
2023-04-24T01:22:03.365Z,10.94
2023-04-24T01:27:05.006Z,10.90
2023-04-24T01:32:07.113Z,10.90
2023-04-24T01:37:08.678Z,10.90
2023-04-24T01:42:10.631Z,10.86
2023-04-24T01:47:12.774Z,10.83
2023-04-24T01:52:14.317Z,10.82
2023-04-24T01:57:17.289Z,10.84
2023-04-24T02:02:19.425Z,10.85
2023-04-24T02:07:21.542Z,10.85
2023-04-24T02:12:23.045Z,10.83
2023-04-24T02:17:24.565Z,10.80
2023-04-24T02:22:26.102Z,10.76
2023-04-24T02:27:27.599Z,10.70
2023-04-24T02:32:29.156Z,10.65
2023-04-24T02:37:31.184Z,10.59
2023-04-24T02:42:32.644Z,10.53
2023-04-24T02:47:34.175Z,10.49
2023-04-24T02:52:35.868Z,10.43
2023-04-24T02:57:37.343Z,10.38
2023-04-24T03:02:38.967Z,10.33
2023-04-24T03:07:40.792Z,10.29
2023-04-24T03:12:42.371Z,10.22
2023-04-24T03:17:43.933Z,10.14
2023-04-24T03:22:45.705Z,10.06
2023-04-24T03:27:47.273Z,10.00
2023-04-24T03:32:49.099Z,9.95
2023-04-24T03:37:50.634Z,9.94
2023-04-24T03:42:52.131Z,9.95
2023-04-24T03:47:53.656Z,9.96
2023-04-24T03:52:55.267Z,9.98
2023-04-24T03:57:56.738Z,10.01
2023-04-24T04:02:58.555Z,10.07
2023-04-24T04:08:00.307Z,10.12
2023-04-24T04:13:02.048Z,10.15
2023-04-24T04:18:03.724Z,10.19
2023-04-24T04:23:05.370Z,10.28
2023-04-24T04:28:07.336Z,10.41
2023-04-24T04:33:09.303Z,10.56
2023-04-24T04:38:11.910Z,10.73
2023-04-24T04:43:17.064Z,10.93
2023-04-24T04:48:19.737Z,11.11
2023-04-24T04:53:21.434Z,11.29
2023-04-24T04:58:22.941Z,11.41
2023-04-24T05:03:24.552Z,11.53
2023-04-24T05:08:27.788Z,11.59
2023-04-24T05:13:38.980Z,11.62
2023-04-24T05:18:42.484Z,11.63
2023-04-24T05:23:44.043Z,11.52
2023-04-24T05:28:45.626Z,11.43
2023-04-24T05:33:47.114Z,11.41
2023-04-24T05:38:48.929Z,11.48
2023-04-24T05:43:51.008Z,11.68
2023-04-24T05:48:52.574Z,11.91
2023-04-24T05:53:54.095Z,12.15
2023-04-24T05:58:56.547Z,12.38
2023-04-24T06:03:58.550Z,12.56
2023-04-24T06:09:00.156Z,12.79
2023-04-24T06:14:01.715Z,12.98
2023-04-24T06:19:03.220Z,13.14
2023-04-24T06:24:05.622Z,13.31
2023-04-24T06:29:08.306Z,13.45
2023-04-24T06:34:09.884Z,13.60
2023-04-24T06:39:11.490Z,13.76
2023-04-24T06:44:12.990Z,13.89
2023-04-24T06:49:17.298Z,14.02
2023-04-24T06:54:19.016Z,14.20
2023-04-24T06:59:20.952Z,14.48
2023-04-24T07:04:22.875Z,14.71
2023-04-24T07:09:29.474Z,14.86
2023-04-24T07:14:31.556Z,15.05
2023-04-24T07:19:36.380Z,15.15
2023-04-24T07:24:37.867Z,15.22
2023-04-24T07:29:40.521Z,15.30
2023-04-24T07:34:42.099Z,15.39
2023-04-24T07:39:44.039Z,15.47
2023-04-24T07:44:47.704Z,15.58
2023-04-24T07:49:49.292Z,15.72
2023-04-24T07:54:51.054Z,15.87
2023-04-24T07:59:52.922Z,15.99
2023-04-24T08:04:55.573Z,16.08
2023-04-24T08:09:57.221Z,16.17
2023-04-24T08:14:58.789Z,16.31
2023-04-24T08:20:02.608Z,16.58
2023-04-24T08:25:05.423Z,16.97
2023-04-24T08:30:08.492Z,17.36
2023-04-24T08:35:10.735Z,17.71
2023-04-24T08:40:17.138Z,17.98
2023-04-24T08:45:18.719Z,18.18
2023-04-24T08:50:20.894Z,18.34
2023-04-24T08:55:23.029Z,18.43
2023-04-24T09:00:24.725Z,18.49
2023-04-24T09:05:28.344Z,18.54
2023-04-24T09:10:31.571Z,18.61
2023-04-24T09:15:33.465Z,18.66
2023-04-24T09:20:37.231Z,18.62
2023-04-24T09:25:39.145Z,18.53
2023-04-24T09:30:40.703Z,18.52
2023-04-24T09:35:52.946Z,18.54
2023-04-24T09:40:54.473Z,18.56
2023-04-24T09:46:00.791Z,18.62
2023-04-24T09:51:04.416Z,18.70
2023-04-24T09:56:11.017Z,18.74
2023-04-24T10:01:13.503Z,18.72
2023-04-24T10:06:16.172Z,18.80
2023-04-24T10:11:18.076Z,18.89
2023-04-24T10:16:22.507Z,19.02
2023-04-24T10:21:24.240Z,19.11
2023-04-24T10:26:25.849Z,19.13
2023-04-24T10:31:32.060Z,19.16
2023-04-24T10:36:40.319Z,19.27
2023-04-24T10:41:41.870Z,19.37
2023-04-24T10:46:49.351Z,19.40
2023-04-24T10:51:54.506Z,19.51
2023-04-24T10:57:31.154Z,19.57
2023-04-24T11:02:41.296Z,19.67
2023-04-24T11:08:15.582Z,19.80
2023-04-24T11:13:18.459Z,19.77
2023-04-24T11:18:20.082Z,19.80
2023-04-24T11:23:22.073Z,19.93
2023-04-24T11:28:25.607Z,20.11
2023-04-24T11:33:27.171Z,20.17
2023-04-24T11:38:29.496Z,20.25
2023-04-24T11:43:33.904Z,20.33
2023-04-24T11:48:37.384Z,20.45
2023-04-24T11:53:38.929Z,20.52
2023-04-24T11:58:40.430Z,20.59
2023-04-24T12:03:47.751Z,20.68
2023-04-24T12:08:49.712Z,20.77
2023-04-24T12:13:51.542Z,20.86
2023-04-24T12:18:53.077Z,20.93
2023-04-24T12:23:57.329Z,20.93
2023-04-24T12:29:04.337Z,20.73
2023-04-24T12:34:25.967Z,20.35
2023-04-24T12:39:27.802Z,20.58
2023-04-24T12:44:35.987Z,20.91
2023-04-24T12:49:37.584Z,21.18
2023-04-24T12:54:39.157Z,21.13
2023-04-24T12:59:40.717Z,21.07
2023-04-24T13:04:42.194Z,20.84
2023-04-24T13:09:45.611Z,20.63
2023-04-24T13:14:47.978Z,20.48
2023-04-24T13:19:52.470Z,20.43
2023-04-24T13:24:54.076Z,20.41
2023-04-24T13:29:55.635Z,20.44
2023-04-24T13:34:58.065Z,20.51
2023-04-24T13:39:59.477Z,20.62
2023-04-24T13:45:06.103Z,20.67
2023-04-24T13:50:16.230Z,20.77
2023-04-24T13:55:17.856Z,20.94
2023-04-24T14:00:26.415Z,21.03
2023-04-24T14:05:28.819Z,20.92
2023-04-24T14:10:31.010Z,20.82
2023-04-24T14:15:32.541Z,20.76
2023-04-24T14:20:34.067Z,20.71
2023-04-24T14:25:35.755Z,20.63
2023-04-24T14:30:41.520Z,20.88
2023-04-24T14:35:43.866Z,21.28
2023-04-24T14:41:05.655Z,21.51
2023-04-24T14:46:06.906Z,21.63
2023-04-24T14:51:08.547Z,21.67
2023-04-24T14:56:10.117Z,21.80
2023-04-24T15:01:11.981Z,21.89
2023-04-24T15:06:13.657Z,22.01
2023-04-24T15:11:15.265Z,21.98
2023-04-24T15:16:17.250Z,21.97
2023-04-24T15:21:18.883Z,22.07
2023-04-24T15:26:20.917Z,22.16
2023-04-24T15:31:24.014Z,22.34
2023-04-24T15:36:25.923Z,22.44
2023-04-24T15:41:27.427Z,22.39
2023-04-24T15:46:29.171Z,22.39
2023-04-24T15:51:31.757Z,22.47
2023-04-24T15:56:33.600Z,22.53
2023-04-24T16:01:35.178Z,22.58
2023-04-24T16:06:37.024Z,22.68
2023-04-24T16:11:39.705Z,22.67
2023-04-24T16:16:41.393Z,22.62
2023-04-24T16:21:42.906Z,22.55
2023-04-24T16:26:44.664Z,22.43
2023-04-24T16:31:46.234Z,22.28
2023-04-24T16:36:47.877Z,22.12
2023-04-24T16:41:49.822Z,21.98
2023-04-24T16:46:51.956Z,21.83
2023-04-24T16:51:53.579Z,21.69
2023-04-24T16:56:55.336Z,21.54
2023-04-24T17:01:56.941Z,21.42
2023-04-24T17:06:58.508Z,21.22
2023-04-24T17:12:00.154Z,20.94
2023-04-24T17:17:02.128Z,20.57
2023-04-24T17:22:06.260Z,20.15
2023-04-24T17:27:14.313Z,19.76
2023-04-24T17:32:16.419Z,19.42
2023-04-24T17:37:19.843Z,19.13
2023-04-24T17:42:21.343Z,18.86
2023-04-24T17:47:26.219Z,18.63
2023-04-24T17:52:27.800Z,18.41
2023-04-24T17:57:29.381Z,18.20
2023-04-24T18:02:31.161Z,18.02
2023-04-24T18:07:34.126Z,17.84
2023-04-24T18:12:35.765Z,17.68
2023-04-24T18:17:37.322Z,17.53
2023-04-24T18:22:39.740Z,17.37
2023-04-24T18:27:42.015Z,17.20
2023-04-24T18:32:43.632Z,17.07
2023-04-24T18:37:46.351Z,16.96
2023-04-24T18:42:48.238Z,16.84
2023-04-24T18:47:50.274Z,16.75
2023-04-24T18:52:51.858Z,16.69
2023-04-24T18:57:53.452Z,16.63
2023-04-24T19:02:55.060Z,16.59
2023-04-24T19:07:56.707Z,16.57
2023-04-24T19:12:58.390Z,16.53
2023-04-24T19:18:00.661Z,16.48
2023-04-24T19:23:02.361Z,16.38
2023-04-24T19:28:03.859Z,16.30
2023-04-24T19:33:05.781Z,16.19
2023-04-24T19:38:07.368Z,16.07
2023-04-24T19:43:08.890Z,15.94
2023-04-24T19:48:10.440Z,15.81
2023-04-24T19:53:12.348Z,15.66
2023-04-24T19:58:13.846Z,15.53
2023-04-24T20:03:25.403Z,15.41
2023-04-24T20:08:38.948Z,15.26
2023-04-24T20:13:40.590Z,15.15
2023-04-24T20:18:42.252Z,15.02
2023-04-24T20:23:43.738Z,14.90
2023-04-24T20:28:45.541Z,14.80
2023-04-24T20:33:47.037Z,14.69
2023-04-24T20:38:48.880Z,14.55
2023-04-24T20:43:50.937Z,14.43
2023-04-24T20:48:52.468Z,14.29
2023-04-24T20:53:53.987Z,14.16
2023-04-24T20:58:57.107Z,14.06
2023-04-24T21:03:59.269Z,14.01
2023-04-24T21:09:00.902Z,13.98
2023-04-24T21:14:02.821Z,13.95
2023-04-24T21:19:05.391Z,13.91
2023-04-24T21:24:07.290Z,13.85
2023-04-24T21:29:08.804Z,13.78
2023-04-24T21:34:10.529Z,13.74
2023-04-24T21:39:11.993Z,13.66
2023-04-24T21:44:13.634Z,13.56
2023-04-24T21:49:15.134Z,13.46
2023-04-24T21:54:17.044Z,13.37
2023-04-24T21:59:19.034Z,13.30
2023-04-24T22:04:20.982Z,13.23
2023-04-24T22:09:22.850Z,13.14
2023-04-24T22:14:24.452Z,13.04
2023-04-24T22:19:26.444Z,12.96
2023-04-24T22:24:28.472Z,12.86
2023-04-24T22:29:31.028Z,12.79
2023-04-24T22:34:32.574Z,12.71
2023-04-24T22:39:34.111Z,12.60
2023-04-24T22:44:35.935Z,12.51
2023-04-24T22:49:37.970Z,12.42
2023-04-24T22:54:39.488Z,12.34
2023-04-24T22:59:41.065Z,12.28
2023-04-24T23:04:42.628Z,12.22
2023-04-24T23:09:44.186Z,12.14
2023-04-24T23:14:45.695Z,12.07
2023-04-24T23:19:47.435Z,12.02
2023-04-24T23:24:48.915Z,12.00
2023-04-24T23:29:50.641Z,12.01
2023-04-24T23:34:52.243Z,11.98
2023-04-24T23:39:53.773Z,11.90
2023-04-24T23:44:55.300Z,11.82
2023-04-24T23:49:56.913Z,11.78
2023-04-24T23:54:58.659Z,11.76
